Time,TemperatureF,DewpointF,PressureIn,WindDirection,WindDirectionDegrees,WindSpeedMPH,WindSpeedGustMPH,Humidity,HourlyPrecipIn,Conditions,Clouds,dailyrainin,SoftwareType,DateUTC
2013-05-26 00:00:00,50.0,48.9,29.96,WNW,294,0.0,4.0,96,0.00,,,0.03,Wunderground v.1.15,2013-05-26 07:00:00,
2013-05-26 00:05:00,50.0,48.9,29.96,WNW,294,0.0,4.0,96,0.00,,,0.03,Wunderground v.1.15,2013-05-26 07:05:00,
2013-05-26 00:10:00,49.9,48.8,29.95,WNW,294,0.0,4.0,96,0.00,,,0.00,Wunderground v.1.15,2013-05-26 07:10:00,
2013-05-26 00:15:00,49.9,48.8,29.96,WNW,294,0.0,4.0,96,0.00,,,0.00,Wunderground v.1.15,2013-05-26 07:15:00,
2013-05-26 00:20:00,49.9,48.8,29.95,WNW,294,0.0,4.0,96,0.00,,,0.00,Wunderground v.1.15,2013-05-26 07:20:00,
2013-05-26 00:25:00,49.9,48.8,29.95,WNW,294,0.0,4.0,96,0.00,,,0.00,Wunderground v.1.15,2013-05-26 07:25:00,
2013-05-26 00:30:00,50.0,48.9,29.95,WNW,294,0.0,4.0,96,0.00,,,0.00,Wunderground v.1.15,2013-05-26 07:30:00,
2013-05-26 00:35:00,50.1,49.0,29.95,WNW,294,0.0,4.0,96,0.00,,,0.00,Wunderground v.1.15,2013-05-26 07:35:00,
2013-05-26 00:40:00,50.1,49.0,29.95,WNW,294,0.0,4.0,96,0.00,,,0.00,Wunderground v.1.15,2013-05-26 07:40:00,
2013-05-26 00:45:00,50.1,49.0,29.95,WNW,294,0.0,4.0,96,0.00,,,0.00,Wunderground v.1.15,2013-05-26 07:45:00,
2013-05-26 00:50:00,50.2,49.1,29.96,WSW,250,1.0,4.0,96,0.00,,,0.01,Wunderground v.1.15,2013-05-26 07:50:00,
2013-05-26 00:55:00,50.3,49.2,29.95,WSW,248,1.0,4.0,96,0.00,,,0.01,Wunderground v.1.15,2013-05-26 07:55:00,
2013-05-26 01:00:00,50.3,49.2,29.96,WSW,248,1.0,1.0,96,0.00,,,0.01,Wunderground v.1.15,2013-05-26 08:00:00,
2013-05-26 01:05:00,50.2,49.1,29.96,WSW,248,0.0,4.0,96,0.00,,,0.01,Wunderground v.1.15,2013-05-26 08:05:00,
2013-05-26 01:10:00,50.1,49.0,29.96,WSW,248,0.0,4.0,96,0.00,,,0.02,Wunderground v.1.15,2013-05-26 08:10:00,
2013-05-26 01:15:00,50.0,48.9,29.96,WSW,248,0.0,4.0,96,0.00,,,0.02,Wunderground v.1.15,2013-05-26 08:15:00,
2013-05-26 01:20:00,49.9,48.8,29.96,WSW,248,0.0,4.0,96,0.00,,,0.02,Wunderground v.1.15,2013-05-26 08:20:00,
2013-05-26 01:25:00,49.9,48.8,29.95,WSW,248,0.0,4.0,96,0.00,,,0.02,Wunderground v.1.15,2013-05-26 08:25:00,
2013-05-26 01:30:00,49.8,48.7,29.95,WSW,248,0.0,4.0,96,0.00,,,0.02,Wunderground v.1.15,2013-05-26 08:30:00,
2013-05-26 01:35:00,49.8,49.0,29.95,WSW,248,0.0,4.0,97,0.00,,,0.02,Wunderground v.1.15,2013-05-26 08:35:00,
2013-05-26 01:40:00,49.9,49.1,29.95,WSW,243,0.0,4.0,97,0.00,,,0.02,Wunderground v.1.15,2013-05-26 08:40:00,
2013-05-26 01:45:00,50.0,49.2,29.95,SW,229,2.0,4.0,97,0.00,,,0.02,Wunderground v.1.15,2013-05-26 08:45:00,
2013-05-26 01:50:00,50.2,49.4,29.95,SSW,192,3.0,3.0,97,0.00,,,0.02,Wunderground v.1.15,2013-05-26 08:50:00,
2013-05-26 01:55:00,50.1,49.3,29.95,SSE,166,3.0,4.0,97,0.00,,,0.03,Wunderground v.1.15,2013-05-26 08:55:00,
2013-05-26 02:00:00,50.1,49.3,29.95,SSE,165,3.0,4.0,97,0.00,,,0.03,Wunderground v.1.15,2013-05-26 09:00:00,
2013-05-26 02:05:00,50.1,49.3,29.95,SSE,161,3.0,4.0,97,0.00,,,0.03,Wunderground v.1.15,2013-05-26 09:05:00,
2013-05-26 02:10:00,50.1,49.3,29.95,SSE,161,3.0,4.0,97,0.00,,,0.03,Wunderground v.1.15,2013-05-26 09:10:00,
2013-05-26 02:15:00,50.2,49.4,29.95,SSE,161,2.0,4.0,97,0.00,,,0.03,Wunderground v.1.15,2013-05-26 09:15:00,
2013-05-26 02:20:00,50.1,49.3,29.95,SSE,161,0.0,4.0,97,0.00,,,0.03,Wunderground v.1.15,2013-05-26 09:20:00,
2013-05-26 02:25:00,50.1,49.3,29.95,SSE,161,0.0,4.0,97,0.00,,,0.03,Wunderground v.1.15,2013-05-26 09:25:00,
2013-05-26 02:30:00,50.1,49.3,29.95,SSE,161,0.0,4.0,97,0.00,,,0.03,Wunderground v.1.15,2013-05-26 09:30:00,
2013-05-26 02:35:00,50.1,49.3,29.95,SSE,161,0.0,4.0,97,0.00,,,0.03,Wunderground v.1.15,2013-05-26 09:35:00,
2013-05-26 02:40:00,50.1,49.3,29.95,SSE,161,0.0,4.0,97,0.00,,,0.03,Wunderground v.1.15,2013-05-26 09:40:00,
2013-05-26 02:45:00,50.1,49.3,29.95,SSE,148,1.0,4.0,97,0.00,,,0.04,Wunderground v.1.15,2013-05-26 09:45:00,
2013-05-26 02:50:00,50.1,49.3,29.95,SSE,148,2.0,4.0,97,0.00,,,0.04,Wunderground v.1.15,2013-05-26 09:50:00,
2013-05-26 02:55:00,50.2,49.4,29.95,SSE,148,2.0,4.0,97,0.00,,,0.04,Wunderground v.1.15,2013-05-26 09:55:00,
2013-05-26 03:00:00,50.1,49.3,29.95,SE,146,2.0,4.0,97,0.00,,,0.04,Wunderground v.1.15,2013-05-26 10:00:00,
2013-05-26 03:05:00,50.1,49.3,29.94,SE,141,2.0,4.0,97,0.00,,,0.04,Wunderground v.1.15,2013-05-26 10:05:00,
2013-05-26 03:10:00,50.2,49.4,29.95,SE,142,3.0,4.0,97,0.00,,,0.04,Wunderground v.1.15,2013-05-26 10:10:00,
2013-05-26 03:15:00,50.2,49.4,29.94,SE,141,4.0,4.0,97,0.00,,,0.04,Wunderground v.1.15,2013-05-26 10:15:00,
2013-05-26 03:20:00,50.1,49.3,29.94,SE,142,3.0,4.0,97,0.00,,,0.04,Wunderground v.1.15,2013-05-26 10:20:00,
2013-05-26 03:25:00,50.1,49.3,29.94,SE,140,3.0,4.0,97,0.00,,,0.04,Wunderground v.1.15,2013-05-26 10:25:00,
2013-05-26 03:30:00,50.0,49.2,29.94,SE,136,3.0,4.0,97,0.00,,,0.04,Wunderground v.1.15,2013-05-26 10:30:00,
2013-05-26 03:35:00,50.1,49.3,29.94,SE,136,3.0,4.0,97,0.00,,,0.04,Wunderground v.1.15,2013-05-26 10:35:00,
2013-05-26 03:40:00,50.1,49.3,29.94,SE,135,3.0,3.0,97,0.00,,,0.04,Wunderground v.1.15,2013-05-26 10:40:00,
2013-05-26 03:45:00,50.1,49.3,29.94,SE,134,2.0,4.0,97,0.00,,,0.04,Wunderground v.1.15,2013-05-26 10:45:00,
2013-05-26 03:50:00,50.1,49.3,29.94,SE,132,2.0,4.0,97,0.00,,,0.04,Wunderground v.1.15,2013-05-26 10:50:00,
2013-05-26 03:55:00,50.1,49.3,29.94,SE,132,2.0,4.0,97,0.00,,,0.04,Wunderground v.1.15,2013-05-26 10:55:00,
2013-05-26 04:00:00,50.2,49.4,29.94,SE,130,2.0,4.0,97,0.00,,,0.05,Wunderground v.1.15,2013-05-26 11:00:00,
2013-05-26 04:05:00,50.1,49.3,29.94,SE,134,3.0,4.0,97,0.00,,,0.05,Wunderground v.1.15,2013-05-26 11:05:00,
2013-05-26 04:10:00,50.1,49.3,29.94,SE,136,3.0,4.0,97,0.00,,,0.05,Wunderground v.1.15,2013-05-26 11:10:00,
2013-05-26 04:15:00,50.0,49.2,29.94,SSE,152,3.0,5.0,97,0.00,,,0.05,Wunderground v.1.15,2013-05-26 11:15:00,
2013-05-26 04:20:00,50.1,49.3,29.94,SSE,164,4.0,4.0,97,0.00,,,0.05,Wunderground v.1.15,2013-05-26 11:20:00,
2013-05-26 04:25:00,50.1,49.3,29.95,SSE,163,5.0,5.0,97,0.00,,,0.05,Wunderground v.1.15,2013-05-26 11:25:00,
2013-05-26 04:30:00,50.1,49.3,29.95,SSE,154,4.0,5.0,97,0.00,,,0.05,Wunderground v.1.15,2013-05-26 11:30:00,
2013-05-26 04:35:00,50.0,49.2,29.94,SSE,153,5.0,5.0,97,0.00,,,0.05,Wunderground v.1.15,2013-05-26 11:35:00,
2013-05-26 04:40:00,50.1,49.3,29.94,SSE,158,5.0,5.0,97,0.00,,,0.05,Wunderground v.1.15,2013-05-26 11:40:00,
2013-05-26 04:45:00,50.2,49.4,29.95,SE,144,5.0,6.0,97,0.00,,,0.05,Wunderground v.1.15,2013-05-26 11:45:00,
2013-05-26 04:50:00,50.2,49.4,29.94,SE,146,5.0,5.0,97,0.00,,,0.05,Wunderground v.1.15,2013-05-26 11:50:00,
2013-05-26 04:55:00,50.2,49.4,29.94,SSE,149,6.0,7.0,97,0.00,,,0.05,Wunderground v.1.15,2013-05-26 11:55:00,
2013-05-26 05:05:00,50.2,49.4,29.94,SE,141,6.0,7.0,97,0.00,,,0.05,Wunderground v.1.15,2013-05-26 12:05:00,
2013-05-26 05:10:00,50.3,49.5,29.95,SE,140,6.0,6.0,97,0.00,,,0.05,Wunderground v.1.15,2013-05-26 12:10:00,
2013-05-26 05:15:00,50.4,49.6,29.94,SE,132,5.0,6.0,97,0.00,,,0.05,Wunderground v.1.15,2013-05-26 12:15:00,
2013-05-26 05:20:00,50.4,49.6,29.95,SE,136,4.0,6.0,97,0.00,,,0.05,Wunderground v.1.15,2013-05-26 12:20:00,
2013-05-26 05:25:00,50.4,49.6,29.95,SE,137,4.0,6.0,97,0.00,,,0.05,Wunderground v.1.15,2013-05-26 12:25:00,
2013-05-26 05:30:00,50.4,49.6,29.95,SE,127,4.0,4.0,97,0.00,,,0.06,Wunderground v.1.15,2013-05-26 12:30:00,
2013-05-26 05:35:00,50.5,49.7,29.95,SE,124,4.0,4.0,97,0.00,,,0.06,Wunderground v.1.15,2013-05-26 12:35:00,
2013-05-26 05:45:00,50.5,49.7,29.95,ESE,123,2.0,4.0,97,0.00,,,0.06,Wunderground v.1.15,2013-05-26 12:45:00,
2013-05-26 05:50:00,50.4,49.6,29.95,SE,124,2.0,4.0,97,0.00,,,0.06,Wunderground v.1.15,2013-05-26 12:50:00,
2013-05-26 05:55:00,50.5,49.7,29.95,SE,128,2.0,4.0,97,0.00,,,0.07,Wunderground v.1.15,2013-05-26 12:55:00,
2013-05-26 06:00:00,50.5,49.7,29.95,SE,131,3.0,3.0,97,0.00,,,0.07,Wunderground v.1.15,2013-05-26 13:00:00,
2013-05-26 06:05:00,50.6,49.8,29.95,SE,134,3.0,4.0,97,0.00,,,0.07,Wunderground v.1.15,2013-05-26 13:05:00,
2013-05-26 06:10:00,50.5,49.7,29.95,SE,131,3.0,3.0,97,0.00,,,0.07,Wunderground v.1.15,2013-05-26 13:10:00,
2013-05-26 06:15:00,50.5,49.7,29.95,SE,136,2.0,4.0,97,0.00,,,0.07,Wunderground v.1.15,2013-05-26 13:15:00,
2013-05-26 06:20:00,50.5,49.7,29.95,SE,144,2.0,4.0,97,0.00,,,0.07,Wunderground v.1.15,2013-05-26 13:20:00,
2013-05-26 06:25:00,50.4,49.6,29.95,SE,136,2.0,4.0,97,0.00,,,0.07,Wunderground v.1.15,2013-05-26 13:25:00,
2013-05-26 06:30:00,50.5,50.0,29.95,SE,129,2.0,4.0,98,0.00,,,0.07,Wunderground v.1.15,2013-05-26 13:30:00,
2013-05-26 06:35:00,50.5,49.7,29.96,SE,129,2.0,4.0,97,0.00,,,0.07,Wunderground v.1.15,2013-05-26 13:35:00,
2013-05-26 06:40:00,50.6,49.8,29.96,SE,129,2.0,4.0,97,0.00,,,0.07,Wunderground v.1.15,2013-05-26 13:40:00,
2013-05-26 06:45:00,50.7,49.9,29.96,SE,136,3.0,4.0,97,0.00,,,0.07,Wunderground v.1.15,2013-05-26 13:45:00,
2013-05-26 06:50:00,50.7,49.9,29.96,SE,135,3.0,4.0,97,0.00,,,0.07,Wunderground v.1.15,2013-05-26 13:50:00,
2013-05-26 06:55:00,50.6,49.8,29.96,SE,139,3.0,5.0,97,0.00,,,0.07,Wunderground v.1.15,2013-05-26 13:55:00,
2013-05-26 07:00:00,50.6,49.8,29.96,SSE,148,4.0,5.0,97,0.00,,,0.07,Wunderground v.1.15,2013-05-26 14:00:00,
2013-05-26 07:05:00,50.6,49.8,29.96,SSE,154,4.0,5.0,97,0.00,,,0.07,Wunderground v.1.15,2013-05-26 14:05:00,
2013-05-26 07:10:00,50.6,49.8,29.96,SSE,155,3.0,4.0,97,0.00,,,0.07,Wunderground v.1.15,2013-05-26 14:10:00,
2013-05-26 07:15:00,50.6,49.8,29.96,SSE,155,2.0,4.0,97,0.00,,,0.07,Wunderground v.1.15,2013-05-26 14:15:00,
2013-05-26 07:20:00,50.6,49.8,29.96,SSE,155,1.0,4.0,97,0.00,,,0.07,Wunderground v.1.15,2013-05-26 14:20:00,
2013-05-26 07:25:00,50.7,49.9,29.96,SSE,155,1.0,4.0,97,0.00,,,0.07,Wunderground v.1.15,2013-05-26 14:25:00,
2013-05-26 07:30:00,50.9,50.4,29.96,SSE,157,2.0,4.0,98,0.00,,,0.07,Wunderground v.1.15,2013-05-26 14:30:00,
2013-05-26 07:35:00,50.8,50.3,29.96,SSE,157,2.0,4.0,98,0.00,,,0.07,Wunderground v.1.15,2013-05-26 14:35:00,
2013-05-26 07:40:00,50.9,50.4,29.96,SSE,161,3.0,4.0,98,0.00,,,0.07,Wunderground v.1.15,2013-05-26 14:40:00,
2013-05-26 07:45:00,51.0,50.5,29.96,SSE,161,2.0,4.0,98,0.00,,,0.07,Wunderground v.1.15,2013-05-26 14:45:00,
2013-05-26 07:50:00,51.0,50.5,29.96,SSE,161,2.0,2.0,98,0.00,,,0.07,Wunderground v.1.15,2013-05-26 14:50:00,
2013-05-26 07:55:00,51.0,50.5,29.96,SSE,165,2.0,4.0,98,0.00,,,0.07,Wunderground v.1.15,2013-05-26 14:55:00,
2013-05-26 08:00:00,51.0,50.2,29.97,SSE,165,2.0,4.0,97,0.00,,,0.07,Wunderground v.1.15,2013-05-26 15:00:00,
2013-05-26 08:05:00,51.1,50.3,29.97,SSE,165,2.0,4.0,97,0.00,,,0.07,Wunderground v.1.15,2013-05-26 15:05:00,
2013-05-26 08:10:00,51.2,50.4,29.97,SSE,165,3.0,4.0,97,0.00,,,0.07,Wunderground v.1.15,2013-05-26 15:10:00,
2013-05-26 08:15:00,51.3,50.5,29.97,SSE,165,3.0,4.0,97,0.00,,,0.07,Wunderground v.1.15,2013-05-26 15:15:00,
2013-05-26 08:20:00,51.5,51.0,29.97,South,170,3.0,4.0,98,0.00,,,0.07,Wunderground v.1.15,2013-05-26 15:20:00,
2013-05-26 08:25:00,51.6,50.8,29.98,South,175,3.0,4.0,97,0.00,,,0.07,Wunderground v.1.15,2013-05-26 15:25:00,
2013-05-26 08:30:00,51.7,50.9,29.98,SSE,155,3.0,4.0,97,0.00,,,0.07,Wunderground v.1.15,2013-05-26 15:30:00,
2013-05-26 08:35:00,51.8,51.0,29.97,SSE,155,2.0,4.0,97,0.00,,,0.07,Wunderground v.1.15,2013-05-26 15:35:00,
2013-05-26 08:40:00,52.0,51.2,29.98,SSE,148,3.0,4.0,97,0.00,,,0.07,Wunderground v.1.15,2013-05-26 15:40:00,
2013-05-26 08:45:00,52.1,51.3,29.98,SSE,161,3.0,4.0,97,0.00,,,0.07,Wunderground v.1.15,2013-05-26 15:45:00,
2013-05-26 08:50:00,52.1,51.3,29.98,SSE,160,4.0,4.0,97,0.00,,,0.07,Wunderground v.1.15,2013-05-26 15:50:00,
2013-05-26 08:55:00,52.1,51.3,29.98,SSE,155,4.0,4.0,97,0.00,,,0.07,Wunderground v.1.15,2013-05-26 15:55:00,
2013-05-26 09:00:00,52.2,51.4,29.98,SSE,155,4.0,4.0,97,0.00,,,0.07,Wunderground v.1.15,2013-05-26 16:00:00,
2013-05-26 09:05:00,52.3,51.5,29.98,SSE,155,3.0,4.0,97,0.00,,,0.07,Wunderground v.1.15,2013-05-26 16:05:00,
2013-05-26 09:10:00,52.4,51.6,29.98,SSE,155,3.0,3.0,97,0.00,,,0.07,Wunderground v.1.15,2013-05-26 16:10:00,
2013-05-26 09:15:00,52.4,51.3,29.98,SSE,154,2.0,4.0,96,0.00,,,0.07,Wunderground v.1.15,2013-05-26 16:15:00,
2013-05-26 09:20:00,52.6,51.5,29.99,SE,136,3.0,3.0,96,0.00,,,0.07,Wunderground v.1.15,2013-05-26 16:20:00,
2013-05-26 09:25:00,52.7,51.6,29.98,SE,136,2.0,4.0,96,0.00,,,0.07,Wunderground v.1.15,2013-05-26 16:25:00,
2013-05-26 09:30:00,52.8,51.7,29.98,SE,136,1.0,1.0,96,0.00,,,0.07,Wunderground v.1.15,2013-05-26 16:30:00,
2013-05-26 09:35:00,52.9,51.8,29.98,SE,129,1.0,2.0,96,0.00,,,0.07,Wunderground v.1.15,2013-05-26 16:35:00,
2013-05-26 09:40:00,53.2,52.1,29.98,SE,129,1.0,1.0,96,0.00,,,0.07,Wunderground v.1.15,2013-05-26 16:40:00,
2013-05-26 09:45:00,53.2,51.8,29.98,SE,133,2.0,3.0,95,0.00,,,0.07,Wunderground v.1.15,2013-05-26 16:45:00,
2013-05-26 09:50:00,53.2,51.8,29.98,SE,129,3.0,3.0,95,0.00,,,0.07,Wunderground v.1.15,2013-05-26 16:50:00,
2013-05-26 09:55:00,53.4,51.7,29.98,SE,132,2.0,4.0,94,0.00,,,0.07,Wunderground v.1.15,2013-05-26 16:55:00,
2013-05-26 10:00:00,53.5,51.5,29.98,SE,140,2.0,4.0,93,0.00,,,0.07,Wunderground v.1.15,2013-05-26 17:00:00,
2013-05-26 10:05:00,53.7,51.7,29.98,SSE,159,3.0,4.0,93,0.00,,,0.07,Wunderground v.1.15,2013-05-26 17:05:00,
2013-05-26 10:10:00,54.0,51.7,29.98,SE,144,2.0,4.0,92,0.00,,,0.07,Wunderground v.1.15,2013-05-26 17:10:00,
2013-05-26 10:15:00,54.5,51.6,29.98,SE,132,3.0,4.0,90,0.00,,,0.07,Wunderground v.1.15,2013-05-26 17:15:00,
2013-05-26 10:20:00,54.8,51.6,29.98,SE,132,3.0,4.0,89,0.00,,,0.07,Wunderground v.1.15,2013-05-26 17:20:00,
2013-05-26 10:25:00,55.2,52.3,29.98,ESE,119,2.0,4.0,90,0.00,,,0.07,Wunderground v.1.15,2013-05-26 17:25:00,
2013-05-26 10:30:00,55.4,52.2,29.98,ESE,119,1.0,4.0,89,0.00,,,0.07,Wunderground v.1.15,2013-05-26 17:30:00,
2013-05-26 10:35:00,55.5,52.0,29.98,SE,132,1.0,4.0,88,0.00,,,0.07,Wunderground v.1.15,2013-05-26 17:35:00,
2013-05-26 10:40:00,55.8,52.6,29.99,SE,132,1.0,1.0,89,0.00,,,0.07,Wunderground v.1.15,2013-05-26 17:40:00,
2013-05-26 10:45:00,56.0,52.5,29.99,SE,132,0.0,4.0,88,0.00,,,0.07,Wunderground v.1.15,2013-05-26 17:45:00,
2013-05-26 10:50:00,56.0,52.5,29.99,ESE,117,1.0,1.0,88,0.00,,,0.07,Wunderground v.1.15,2013-05-26 17:50:00,
2013-05-26 10:55:00,56.2,52.7,29.99,ESE,112,1.0,4.0,88,0.00,,,0.07,Wunderground v.1.15,2013-05-26 17:55:00,
2013-05-26 11:00:00,56.2,52.4,29.99,ESE,112,0.0,4.0,87,0.00,,,0.07,Wunderground v.1.15,2013-05-26 18:00:00,
2013-05-26 11:05:00,56.2,52.4,29.99,ESE,111,1.0,4.0,87,0.00,,,0.07,Wunderground v.1.15,2013-05-26 18:05:00,
2013-05-26 11:10:00,56.3,52.5,29.99,ESE,111,1.0,1.0,87,0.00,,,0.07,Wunderground v.1.15,2013-05-26 18:10:00,
2013-05-26 11:15:00,56.1,52.0,29.99,ESE,123,1.0,2.0,86,0.00,,,0.07,Wunderground v.1.15,2013-05-26 18:15:00,
2013-05-26 11:20:00,56.0,51.6,29.99,ESE,123,1.0,1.0,85,0.00,,,0.07,Wunderground v.1.15,2013-05-26 18:20:00,
2013-05-26 11:25:00,56.0,51.9,29.99,ESE,123,0.0,4.0,86,0.00,,,0.07,Wunderground v.1.15,2013-05-26 18:25:00,
2013-05-26 11:30:00,56.0,51.6,29.99,ESE,123,0.0,4.0,85,0.00,,,0.07,Wunderground v.1.15,2013-05-26 18:30:00,
2013-05-26 11:35:00,56.2,52.4,29.99,SSE,158,1.0,4.0,87,0.00,,,0.07,Wunderground v.1.15,2013-05-26 18:35:00,
2013-05-26 11:40:00,55.6,52.4,30.00,West,281,2.0,6.0,89,0.00,,,0.07,Wunderground v.1.15,2013-05-26 18:40:00,
2013-05-26 11:45:00,54.8,51.9,30.00,WNW,290,4.0,6.0,90,0.00,,,0.07,Wunderground v.1.15,2013-05-26 18:45:00,
2013-05-26 11:50:00,54.9,52.3,29.99,NNW,331,3.0,4.0,91,0.00,,,0.07,Wunderground v.1.15,2013-05-26 18:50:00,
2013-05-26 11:55:00,55.0,52.7,29.99,NW,319,2.0,4.0,92,0.00,,,0.07,Wunderground v.1.15,2013-05-26 18:55:00,
2013-05-26 12:00:00,54.9,52.3,29.99,WNW,284,2.0,4.0,91,0.00,,,0.07,Wunderground v.1.15,2013-05-26 19:00:00,
2013-05-26 12:05:00,55.0,52.4,29.99,NW,307,2.0,4.0,91,0.00,,,0.07,Wunderground v.1.15,2013-05-26 19:05:00,
2013-05-26 12:10:00,55.3,52.7,29.99,NW,321,1.0,1.0,91,0.00,,,0.07,Wunderground v.1.15,2013-05-26 19:10:00,
2013-05-26 12:15:00,56.1,53.5,29.99,NW,305,2.0,2.0,91,0.00,,,0.07,Wunderground v.1.15,2013-05-26 19:15:00,
2013-05-26 12:20:00,56.4,53.5,29.99,WNW,300,3.0,3.0,90,0.00,,,0.07,Wunderground v.1.15,2013-05-26 19:20:00,
2013-05-26 12:25:00,56.5,53.3,29.99,NW,313,3.0,4.0,89,0.00,,,0.08,Wunderground v.1.15,2013-05-26 19:25:00,
2013-05-26 12:30:00,56.5,53.3,29.99,NNW,338,3.0,5.0,89,0.00,,,0.08,Wunderground v.1.15,2013-05-26 19:30:00,
2013-05-26 12:35:00,56.3,52.8,30.00,WNW,284,3.0,5.0,88,0.00,,,0.08,Wunderground v.1.15,2013-05-26 19:35:00,
2013-05-26 12:40:00,55.6,52.1,30.00,West,273,5.0,6.0,88,0.00,,,0.08,Wunderground v.1.15,2013-05-26 19:40:00,
2013-05-26 12:45:00,55.7,52.5,30.00,NNW,333,5.0,6.0,89,0.00,,,0.08,Wunderground v.1.15,2013-05-26 19:45:00,
2013-05-26 12:50:00,56.0,52.5,30.00,NNW,344,5.0,6.0,88,0.00,,,0.08,Wunderground v.1.15,2013-05-26 19:50:00,
2013-05-26 12:55:00,56.4,52.6,30.00,NW,305,5.0,6.0,87,0.00,,,0.08,Wunderground v.1.15,2013-05-26 19:55:00,
2013-05-26 13:00:00,56.9,53.1,29.99,NNE,27,5.0,9.0,87,0.00,,,0.08,Wunderground v.1.15,2013-05-26 20:00:00,
2013-05-26 13:05:00,57.2,53.0,30.00,NW,312,4.0,9.0,86,0.00,,,0.08,Wunderground v.1.15,2013-05-26 20:05:00,
2013-05-26 13:10:00,57.4,53.2,30.00,NNW,332,3.0,4.0,86,0.00,,,0.08,Wunderground v.1.15,2013-05-26 20:10:00,
2013-05-26 13:15:00,57.6,53.4,30.00,West,277,2.0,4.0,86,0.00,,,0.08,Wunderground v.1.15,2013-05-26 20:15:00,
2013-05-26 13:20:00,57.6,52.8,30.00,North,5,3.0,4.0,84,0.00,,,0.08,Wunderground v.1.15,2013-05-26 20:20:00,
2013-05-26 13:25:00,57.6,52.5,30.00,NE,42,3.0,4.0,83,0.00,,,0.08,Wunderground v.1.15,2013-05-26 20:25:00,
2013-05-26 13:30:00,58.0,53.2,30.00,NNW,344,3.0,3.0,84,0.00,,,0.08,Wunderground v.1.15,2013-05-26 20:30:00,
2013-05-26 13:35:00,58.6,53.5,30.00,North,350,4.0,4.0,83,0.00,,,0.08,Wunderground v.1.15,2013-05-26 20:35:00,
2013-05-26 13:40:00,58.9,53.1,30.00,NNE,25,4.0,4.0,81,0.00,,,0.08,Wunderground v.1.15,2013-05-26 20:40:00,
2013-05-26 13:45:00,59.4,53.9,30.00,North,5,4.0,8.0,82,0.00,,,0.08,Wunderground v.1.15,2013-05-26 20:45:00,
2013-05-26 13:50:00,59.4,53.2,29.99,North,349,4.0,4.0,80,0.00,,,0.08,Wunderground v.1.15,2013-05-26 20:50:00,
2013-05-26 13:55:00,59.4,53.6,29.99,NNE,14,4.0,4.0,81,0.00,,,0.08,Wunderground v.1.15,2013-05-26 20:55:00,
2013-05-26 14:00:00,59.3,53.5,30.00,NW,304,3.0,3.0,81,0.00,,,0.08,Wunderground v.1.15,2013-05-26 21:00:00,
2013-05-26 14:05:00,59.2,53.0,29.99,NNE,31,3.0,4.0,80,0.00,,,0.08,Wunderground v.1.15,2013-05-26 21:05:00,
2013-05-26 14:10:00,59.3,53.1,29.99,NE,38,3.0,3.0,80,0.00,,,0.08,Wunderground v.1.15,2013-05-26 21:10:00,
2013-05-26 14:15:00,59.6,53.4,29.99,NW,316,3.0,5.0,80,0.00,,,0.08,Wunderground v.1.15,2013-05-26 21:15:00,
2013-05-26 14:20:00,59.9,53.0,29.99,NNW,339,3.0,4.0,78,0.00,,,0.08,Wunderground v.1.15,2013-05-26 21:20:00,
2013-05-26 14:25:00,60.3,53.4,29.99,NW,326,3.0,5.0,78,0.00,,,0.08,Wunderground v.1.15,2013-05-26 21:25:00,
2013-05-26 14:30:00,60.3,53.1,29.99,NW,315,4.0,4.0,77,0.00,,,0.08,Wunderground v.1.15,2013-05-26 21:30:00,
2013-05-26 14:35:00,60.2,52.6,29.99,NNW,347,3.0,4.0,76,0.00,,,0.08,Wunderground v.1.15,2013-05-26 21:35:00,
2013-05-26 14:40:00,60.2,52.6,29.99,NE,54,3.0,3.0,76,0.00,,,0.08,Wunderground v.1.15,2013-05-26 21:40:00,
2013-05-26 14:45:00,60.1,52.1,29.99,NE,55,3.0,4.0,75,0.00,,,0.08,Wunderground v.1.15,2013-05-26 21:45:00,
2013-05-26 14:50:00,60.0,52.4,29.99,East,80,2.0,4.0,76,0.00,,,0.08,Wunderground v.1.15,2013-05-26 21:50:00,
2013-05-26 14:55:00,60.6,53.0,29.99,ENE,67,2.0,4.0,76,0.00,,,0.08,Wunderground v.1.15,2013-05-26 21:55:00,
2013-05-26 15:00:00,60.4,51.7,29.99,ESE,111,2.0,4.0,73,0.00,,,0.08,Wunderground v.1.15,2013-05-26 22:00:00,
2013-05-26 15:05:00,60.2,50.0,29.99,SE,143,2.0,4.0,69,0.00,,,0.08,Wunderground v.1.15,2013-05-26 22:05:00,
2013-05-26 15:10:00,60.1,50.3,29.99,SSE,163,3.0,5.0,70,0.00,,,0.08,Wunderground v.1.15,2013-05-26 22:10:00,
2013-05-26 15:15:00,59.9,49.3,30.00,South,183,3.0,5.0,68,0.00,,,0.08,Wunderground v.1.15,2013-05-26 22:15:00,
2013-05-26 15:20:00,60.0,49.4,30.00,West,261,3.0,6.0,68,0.00,,,0.08,Wunderground v.1.15,2013-05-26 22:20:00,
2013-05-26 15:25:00,59.5,48.5,30.00,West,261,6.0,9.0,67,0.00,,,0.08,Wunderground v.1.15,2013-05-26 22:25:00,
2013-05-26 15:30:00,59.4,48.4,30.00,WSW,245,9.0,9.0,67,0.00,,,0.08,Wunderground v.1.15,2013-05-26 22:30:00,
2013-05-26 15:35:00,59.3,47.9,30.00,WSW,252,8.0,9.0,66,0.00,,,0.08,Wunderground v.1.15,2013-05-26 22:35:00,
2013-05-26 15:40:00,59.4,48.4,30.00,South,182,8.0,8.0,67,0.00,,,0.08,Wunderground v.1.15,2013-05-26 22:40:00,
2013-05-26 15:45:00,59.6,48.2,30.00,SSW,201,7.0,8.0,66,0.00,,,0.08,Wunderground v.1.15,2013-05-26 22:45:00,
2013-05-26 15:50:00,59.8,49.2,30.00,WSW,252,5.0,5.0,68,0.00,,,0.08,Wunderground v.1.15,2013-05-26 22:50:00,
2013-05-26 15:55:00,59.9,48.5,30.00,SW,224,5.0,6.0,66,0.00,,,0.08,Wunderground v.1.15,2013-05-26 22:55:00,
2013-05-26 16:00:00,60.1,49.5,30.00,WSW,246,5.0,5.0,68,0.00,,,0.08,Wunderground v.1.15,2013-05-26 23:00:00,
2013-05-26 16:05:00,59.8,48.4,30.00,WSW,239,5.0,9.0,66,0.00,,,0.08,Wunderground v.1.15,2013-05-26 23:05:00,
2013-05-26 16:10:00,59.4,48.4,30.00,SE,142,7.0,8.0,67,0.00,,,0.08,Wunderground v.1.15,2013-05-26 23:10:00,
2013-05-26 16:15:00,58.9,48.7,30.01,South,182,8.0,12.0,69,0.00,,,0.08,Wunderground v.1.15,2013-05-26 23:15:00,
2013-05-26 16:20:00,58.6,48.8,30.01,South,171,8.0,8.0,70,0.00,,,0.08,Wunderground v.1.15,2013-05-26 23:20:00,
2013-05-26 16:25:00,58.6,48.5,30.01,SW,225,7.0,9.0,69,0.00,,,0.08,Wunderground v.1.15,2013-05-26 23:25:00,
2013-05-26 16:30:00,58.4,48.7,30.01,South,188,8.0,8.0,70,0.00,,,0.08,Wunderground v.1.15,2013-05-26 23:30:00,
2013-05-26 16:35:00,58.3,48.2,30.01,SSW,209,9.0,9.0,69,0.00,,,0.08,Wunderground v.1.15,2013-05-26 23:35:00,
2013-05-26 16:40:00,58.2,48.1,30.01,SW,229,8.0,8.0,69,0.00,,,0.08,Wunderground v.1.15,2013-05-26 23:40:00,
2013-05-26 16:45:00,58.4,47.9,30.01,SSE,149,7.0,8.0,68,0.00,,,0.08,Wunderground v.1.15,2013-05-26 23:45:00,
2013-05-26 16:50:00,58.4,47.5,30.01,SSE,161,5.0,5.0,67,0.00,,,0.08,Wunderground v.1.15,2013-05-26 23:50:00,
2013-05-26 16:55:00,58.5,47.6,30.01,SSE,157,4.0,5.0,67,0.00,,,0.08,Wunderground v.1.15,2013-05-26 23:55:00,
2013-05-26 17:00:00,58.6,47.7,30.01,South,176,4.0,4.0,67,0.00,,,0.08,Wunderground v.1.15,2013-05-27 00:00:00,
2013-05-26 17:05:00,58.7,47.8,30.01,West,277,2.0,10.0,67,0.00,,,0.08,Wunderground v.1.15,2013-05-27 00:05:00,
2013-05-26 17:10:00,58.7,47.8,30.01,West,270,5.0,5.0,67,0.00,,,0.08,Wunderground v.1.15,2013-05-27 00:10:00,
2013-05-26 17:15:00,58.8,48.3,30.01,WSW,248,6.0,7.0,68,0.00,,,0.08,Wunderground v.1.15,2013-05-27 00:15:00,
2013-05-26 17:20:00,59.1,48.5,30.01,West,263,5.0,5.0,68,0.00,,,0.08,Wunderground v.1.15,2013-05-27 00:20:00,
2013-05-26 17:25:00,58.9,48.0,30.01,SSW,207,6.0,7.0,67,0.00,,,0.08,Wunderground v.1.15,2013-05-27 00:25:00,
2013-05-26 17:30:00,58.5,48.0,30.01,South,174,8.0,8.0,68,0.00,,,0.08,Wunderground v.1.15,2013-05-27 00:30:00,
2013-05-26 17:35:00,58.2,48.1,30.01,SW,217,9.0,9.0,69,0.00,,,0.08,Wunderground v.1.15,2013-05-27 00:35:00,
2013-05-26 17:40:00,57.8,47.7,30.01,SW,218,9.0,9.0,69,0.00,,,0.08,Wunderground v.1.15,2013-05-27 00:40:00,
2013-05-26 17:45:00,57.7,48.0,30.01,SSW,202,7.0,9.0,70,0.00,,,0.08,Wunderground v.1.15,2013-05-27 00:45:00,
2013-05-26 17:50:00,57.6,47.1,30.01,SSE,163,7.0,7.0,68,0.00,,,0.08,Wunderground v.1.15,2013-05-27 00:50:00,
2013-05-26 17:55:00,57.7,48.0,30.01,WSW,254,4.0,7.0,70,0.00,,,0.08,Wunderground v.1.15,2013-05-27 00:55:00,
2013-05-26 18:00:00,57.8,47.7,30.01,SW,219,3.0,6.0,69,0.00,,,0.08,Wunderground v.1.15,2013-05-27 01:00:00,
2013-05-26 18:05:00,57.8,47.7,30.01,SW,223,6.0,6.0,69,0.00,,,0.08,Wunderground v.1.15,2013-05-27 01:05:00,
2013-05-26 18:10:00,57.9,48.2,30.01,WSW,255,7.0,15.0,70,0.00,,,0.08,Wunderground v.1.15,2013-05-27 01:10:00,
2013-05-26 18:15:00,57.7,48.0,30.01,West,280,8.0,15.0,70,0.00,,,0.08,Wunderground v.1.15,2013-05-27 01:15:00,
2013-05-26 18:20:00,57.5,48.2,30.01,WSW,252,9.0,10.0,71,0.00,,,0.08,Wunderground v.1.15,2013-05-27 01:20:00,
2013-05-26 18:25:00,57.3,48.0,30.01,WSW,252,10.0,15.0,71,0.00,,,0.08,Wunderground v.1.15,2013-05-27 01:25:00,
2013-05-26 18:30:00,56.9,47.6,30.01,West,261,10.0,10.0,71,0.00,,,0.08,Wunderground v.1.15,2013-05-27 01:30:00,
2013-05-26 18:35:00,56.5,47.9,30.01,West,259,11.0,11.0,73,0.00,,,0.08,Wunderground v.1.15,2013-05-27 01:35:00,
2013-05-26 18:40:00,56.5,47.9,30.01,West,275,10.0,10.0,73,0.00,,,0.08,Wunderground v.1.15,2013-05-27 01:40:00,
2013-05-26 18:45:00,56.9,48.0,30.01,WSW,241,8.0,10.0,72,0.00,,,0.08,Wunderground v.1.15,2013-05-27 01:45:00,
2013-05-26 18:50:00,57.2,47.5,30.01,SW,223,7.0,7.0,70,0.00,,,0.08,Wunderground v.1.15,2013-05-27 01:50:00,
2013-05-26 18:55:00,57.2,47.5,30.01,WSW,240,5.0,7.0,70,0.00,,,0.08,Wunderground v.1.15,2013-05-27 01:55:00,
2013-05-26 19:00:00,56.9,47.6,30.01,West,270,5.0,5.0,71,0.00,,,0.08,Wunderground v.1.15,2013-05-27 02:00:00,
2013-05-26 19:05:00,56.6,47.3,30.01,West,261,6.0,8.0,71,0.00,,,0.08,Wunderground v.1.15,2013-05-27 02:05:00,
2013-05-26 19:10:00,56.6,47.7,30.01,SW,229,7.0,8.0,72,0.00,,,0.08,Wunderground v.1.15,2013-05-27 02:10:00,
2013-05-26 19:15:00,56.6,47.7,30.01,WNW,282,7.0,12.0,72,0.00,,,0.08,Wunderground v.1.15,2013-05-27 02:15:00,
2013-05-26 19:20:00,56.5,47.6,30.01,SW,223,6.0,6.0,72,0.00,,,0.08,Wunderground v.1.15,2013-05-27 02:20:00,
2013-05-26 19:25:00,56.4,47.5,30.02,SSW,200,5.0,6.0,72,0.00,,,0.08,Wunderground v.1.15,2013-05-27 02:25:00,
2013-05-26 19:30:00,56.3,47.4,30.01,South,176,4.0,6.0,72,0.00,,,0.08,Wunderground v.1.15,2013-05-27 02:30:00,
2013-05-26 19:35:00,56.2,47.7,30.01,South,178,5.0,6.0,73,0.00,,,0.08,Wunderground v.1.15,2013-05-27 02:35:00,
2013-05-26 19:40:00,56.2,47.7,30.02,South,169,4.0,4.0,73,0.00,,,0.08,Wunderground v.1.15,2013-05-27 02:40:00,
2013-05-26 19:45:00,56.1,47.6,30.02,SW,235,4.0,7.0,73,0.00,,,0.08,Wunderground v.1.15,2013-05-27 02:45:00,
2013-05-26 19:50:00,56.0,47.5,30.02,SSW,205,5.0,5.0,73,0.00,,,0.08,Wunderground v.1.15,2013-05-27 02:50:00,
2013-05-26 19:55:00,56.0,47.8,30.01,West,266,5.0,5.0,74,0.00,,,0.08,Wunderground v.1.15,2013-05-27 02:55:00,
2013-05-26 20:00:00,55.9,47.4,30.01,SW,236,5.0,7.0,73,0.00,,,0.08,Wunderground v.1.15,2013-05-27 03:00:00,
2013-05-26 20:05:00,55.9,47.7,30.01,West,271,5.0,7.0,74,0.00,,,0.08,Wunderground v.1.15,2013-05-27 03:05:00,
2013-05-26 20:10:00,55.8,47.3,30.01,West,267,6.0,8.0,73,0.00,,,0.08,Wunderground v.1.15,2013-05-27 03:10:00,
2013-05-26 20:15:00,55.8,47.6,30.01,West,272,6.0,8.0,74,0.00,,,0.08,Wunderground v.1.15,2013-05-27 03:15:00,
2013-05-26 20:20:00,55.8,48.0,30.01,WSW,257,5.0,5.0,75,0.00,,,0.08,Wunderground v.1.15,2013-05-27 03:20:00,
2013-05-26 20:25:00,55.6,47.4,30.01,West,273,4.0,5.0,74,0.00,,,0.08,Wunderground v.1.15,2013-05-27 03:25:00,
2013-05-26 20:35:00,55.3,47.9,30.01,WNW,284,5.0,5.0,76,0.00,,,0.08,Wunderground v.1.15,2013-05-27 03:35:00,
2013-05-26 20:40:00,55.1,48.0,30.01,West,274,5.0,7.0,77,0.00,,,0.08,Wunderground v.1.15,2013-05-27 03:40:00,
2013-05-26 20:45:00,55.0,47.6,30.01,West,266,5.0,7.0,76,0.00,,,0.08,Wunderground v.1.15,2013-05-27 03:45:00,
2013-05-26 20:50:00,54.9,47.8,30.01,WNW,290,5.0,5.0,77,0.00,,,0.08,Wunderground v.1.15,2013-05-27 03:50:00,
2013-05-26 20:55:00,54.6,47.5,30.00,NE,47,3.0,5.0,77,0.00,,,0.08,Wunderground v.1.15,2013-05-27 03:55:00,
2013-05-26 21:00:00,53.7,48.0,30.01,NE,48,2.0,4.0,81,0.00,,,0.08,Wunderground v.1.15,2013-05-27 04:00:00,
2013-05-26 21:05:00,53.1,48.7,30.01,ENE,57,2.0,4.0,85,0.00,,,0.08,Wunderground v.1.15,2013-05-27 04:05:00,
2013-05-26 21:10:00,52.8,48.7,30.01,NNE,13,2.0,2.0,86,0.00,,,0.08,Wunderground v.1.15,2013-05-27 04:10:00,
2013-05-26 21:15:00,52.5,48.7,30.00,NNE,13,1.0,4.0,87,0.00,,,0.08,Wunderground v.1.15,2013-05-27 04:15:00,
2013-05-26 21:20:00,52.1,48.7,30.00,NNE,19,1.0,4.0,88,0.00,,,0.08,Wunderground v.1.15,2013-05-27 04:20:00,
2013-05-26 21:25:00,51.8,48.7,30.00,North,9,2.0,4.0,89,0.00,,,0.08,Wunderground v.1.15,2013-05-27 04:25:00,
2013-05-26 21:30:00,51.6,48.8,30.00,NNE,25,2.0,2.0,90,0.00,,,0.08,Wunderground v.1.15,2013-05-27 04:30:00,
2013-05-26 21:35:00,51.5,48.7,30.00,NNE,20,2.0,4.0,90,0.00,,,0.08,Wunderground v.1.15,2013-05-27 04:35:00,
2013-05-26 21:40:00,51.4,48.9,30.01,NNE,20,0.0,4.0,91,0.00,,,0.08,Wunderground v.1.15,2013-05-27 04:40:00,
2013-05-26 21:45:00,51.3,48.8,30.01,NNE,20,0.0,4.0,91,0.00,,,0.08,Wunderground v.1.15,2013-05-27 04:45:00,
2013-05-26 21:50:00,51.1,48.6,30.00,NNE,32,1.0,4.0,91,0.00,,,0.08,Wunderground v.1.15,2013-05-27 04:50:00,
2013-05-26 21:55:00,51.0,48.5,30.00,NE,46,1.0,4.0,91,0.00,,,0.08,Wunderground v.1.15,2013-05-27 04:55:00,
2013-05-26 22:00:00,50.9,48.7,30.00,NE,46,1.0,1.0,92,0.00,,,0.08,Wunderground v.1.15,2013-05-27 05:00:00,
2013-05-26 22:05:00,50.8,48.6,30.00,NE,46,1.0,4.0,92,0.00,,,0.08,Wunderground v.1.15,2013-05-27 05:05:00,
2013-05-26 22:10:00,50.7,48.5,30.00,NE,46,0.0,4.0,92,0.00,,,0.08,Wunderground v.1.15,2013-05-27 05:10:00,
2013-05-26 22:15:00,50.7,48.5,30.00,NE,46,0.0,4.0,92,0.00,,,0.08,Wunderground v.1.15,2013-05-27 05:15:00,
2013-05-26 22:20:00,50.7,48.7,30.00,NE,46,0.0,4.0,93,0.00,,,0.08,Wunderground v.1.15,2013-05-27 05:20:00,
2013-05-26 22:25:00,51.0,49.0,30.00,SW,236,1.0,4.0,93,0.00,,,0.08,Wunderground v.1.15,2013-05-27 05:25:00,
2013-05-26 22:30:00,51.1,49.1,30.00,WSW,243,1.0,4.0,93,0.00,,,0.08,Wunderground v.1.15,2013-05-27 05:30:00,
2013-05-26 22:35:00,51.0,49.0,30.00,West,265,1.0,4.0,93,0.00,,,0.08,Wunderground v.1.15,2013-05-27 05:35:00,
2013-05-26 22:40:00,50.6,48.4,30.00,West,265,1.0,1.0,92,0.00,,,0.08,Wunderground v.1.15,2013-05-27 05:40:00,
2013-05-26 22:45:00,50.2,48.0,30.00,West,267,1.0,4.0,92,0.00,,,0.08,Wunderground v.1.15,2013-05-27 05:45:00,
2013-05-26 22:50:00,50.1,48.2,29.99,SW,219,1.0,1.0,93,0.00,,,0.08,Wunderground v.1.15,2013-05-27 05:50:00,
2013-05-26 22:55:00,50.2,48.5,29.99,SSW,213,1.0,2.0,94,0.00,,,0.08,Wunderground v.1.15,2013-05-27 05:55:00,
2013-05-26 23:00:00,49.9,48.0,29.99,SSW,204,1.0,4.0,93,0.00,,,0.08,Wunderground v.1.15,2013-05-27 06:00:00,
2013-05-26 23:05:00,49.8,48.1,29.99,SSW,204,1.0,4.0,94,0.00,,,0.08,Wunderground v.1.15,2013-05-27 06:05:00,
2013-05-26 23:10:00,49.9,48.2,29.99,SSW,204,1.0,1.0,94,0.00,,,0.08,Wunderground v.1.15,2013-05-27 06:10:00,
2013-05-26 23:15:00,49.5,47.6,29.99,SSW,204,0.0,4.0,93,0.00,,,0.08,Wunderground v.1.15,2013-05-27 06:15:00,
2013-05-26 23:20:00,48.8,46.9,29.98,SSW,204,0.0,4.0,93,0.00,,,0.08,Wunderground v.1.15,2013-05-27 06:20:00,
2013-05-26 23:25:00,48.9,47.2,29.99,SSW,204,1.0,4.0,94,0.00,,,0.08,Wunderground v.1.15,2013-05-27 06:25:00,
2013-05-26 23:30:00,48.9,47.2,29.99,SSW,204,1.0,4.0,94,0.00,,,0.08,Wunderground v.1.15,2013-05-27 06:30:00,
2013-05-26 23:35:00,49.1,47.4,29.99,SSW,194,1.0,4.0,94,0.00,,,0.08,Wunderground v.1.15,2013-05-27 06:35:00,
2013-05-26 23:40:00,49.4,48.0,29.98,South,183,2.0,4.0,95,0.00,,,0.08,Wunderground v.1.15,2013-05-27 06:40:00,
2013-05-26 23:45:00,49.5,47.8,29.98,South,180,3.0,4.0,94,0.00,,,0.08,Wunderground v.1.15,2013-05-27 06:45:00,
2013-05-26 23:50:00,49.6,47.9,29.98,SSE,167,3.0,3.0,94,0.00,,,0.08,Wunderground v.1.15,2013-05-27 06:50:00,
2013-05-26 23:55:00,49.9,48.2,29.97,SSE,153,2.0,4.0,94,0.00,,,0.08,Wunderground v.1.15,2013-05-27 06:55:00,